Etusivu
METAR-TAF:

METAR-TAF

Lentoasemat :

Minocqua / Woodruff, Wisconsin, Yhdysvallat

Leveyspiiri: 45-56N, Pituuspiiri: 089-44W, korkeus merenpinnasta: 496 m

Tämänhetkinen sää

Tämä raportti tehtiin 38 minuuttia sitten, kello 16.15 UTC
Tuuli 10 kn pohjoisesta puuskistuen 15 kn:hen
Lämpötila 5°C
Kosteus 87%
Ilmanpaine 1015 hPa
Näkyvyys: 16.1 km
Hajonneita pilviä 1700 ft:n korkeudessa
Pilvistä 2300 ft:n korkeudessa

METAR: KARV 161615Z AUTO 35010G15KT 10SM BKN017 OVC023 05/03 A2998 RMK AO2 T00530029

Aika: 11:53 (16:53 UTC)


TAF: puuttuu

Säähavainnot ja -ennusteet yli 4000 lentoasemalta (METAR- ja TAF-raportit).

Käytössä olevat sääasemat on merkitty karttaan keltaisilla ja punaisilla pisteillä.

Aseta hiiri pisteen päälle nähdäksesi sääaseman nimen.

Klikkaa sitten nähdäksesi säähavainnot ja -ennusteet.

Kartan vaihtaminen: klikkaa mustalla rastilla varustettuja vihreitä pisteitä, niin voit zoomata sisään; viivalla varustettua vihreää pistettä, niin voit zoomata ulos tai vihreitä nuolia, niin pääset viereisille kartoille.


METAR-TAF: